KWJF/WJF METAR and TAF weather

Enter ICAO airport designator
Station Type Date Time Source
KWJF METAR 2022/06/30 01:56 UTC NOAA

KWJF 300156Z 24019G23KT 10SM CLR 33/08 A2999 RMK AO2 SLP129 T03280078


Station Type Date Time Source
KWJF Decoded METAR 2022/06/30 01:56 UTC NOAA

LANCASTER FOX AIRFIELD, CA, United States (KWJF) 34-44N 118-13W
Jun 29, 2022 - 09:56 PM EDT / 2022.06.30 0156 UTC
Wind: from the WSW (240 degrees) at 22 MPH (19 KT) gusting to 26 MPH (23 KT):0
Visibility: 10 mile(s):0
Sky conditions: clear
Temperature: 91.0 F (32.8 C)
Dew Point: 46.0 F (7.8 C)
Relative Humidity: 21%
Pressure (altimeter): 29.99 in. Hg (1015 hPa)
ob: KWJF 300156Z 24019G23KT 10SM CLR 33/08 A2999 RMK AO2 SLP129 T03280078
cycle: 2

Station Type Date Time Source
KWJF TAF 2022/06/29 18:30 UTC NOAA

TAF KWJF 291729Z 2918/3018 25012KT P6SM SKC
FM292000 24020G30KT P6SM SKC
FM300300 24015G22KT P6SM SCT250
FM300500 24012KT P6SM SCT250

Example: see airport list